.
WxDataArchive / Data Records for 2014-10-18
2014-10-17 October 2014 2014-10-19

Data Records for Saturday, 18 October 2014

Time	Temp	Chill	HIndex	Humid	Dewpt	 Wind 	HiWind	WindDir	Rain 	Barom
-----	----	-----	------	-----	-----	------	------	-------	-----	-----
00:00	52.3	52.3	52.3	90	49.5	0	3	292	0.00	29.728 
00:05	52.2	52.2	52.2	91	49.7	0	2	292	0.00	29.728 
00:10	52.2	52.2	52.2	91	49.7	1	4	292	0.00	29.728 
00:15	52.3	52.3	52.3	91	49.8	1	4	292	0.00	29.725 
00:20	52.3	52.3	52.3	91	49.8	2	4	270	0.00	29.725 
00:25	52.3	52.3	52.3	91	49.8	1	3	270	0.00	29.725 
00:30	52.3	52.3	52.3	90	49.5	1	4	270	0.00	29.731 
00:35	52.3	52.3	52.3	90	49.5	1	4	270	0.00	29.731 
00:40	52.3	52.3	52.3	90	49.5	1	5	270	0.00	29.731 
00:45	52.3	52.3	52.3	90	49.5	2	5	270	0.00	29.737 
00:50	52.3	52.3	52.3	89	49.2	3	6	270	0.00	29.737 
00:55	52.3	52.3	52.3	88	48.9	4	8	270	0.00	29.737 
01:00	52.2	52.2	52.2	88	48.8	4	10	270	0.00	29.743 
01:05	52.0	52.0	52.0	89	48.9	2	6	315	0.00	29.743 
01:10	51.6	51.6	51.6	89	48.5	2	5	315	0.00	29.743 
01:15	50.8	50.8	50.8	89	47.7	3	7	315	0.00	29.755 
01:20	50.5	50.5	50.5	88	47.1	3	9	292	0.00	29.755 
01:25	50.1	50.1	50.1	88	46.7	3	8	292	0.00	29.755 
01:30	50.1	50.1	50.1	88	46.7	2	8	315	0.00	29.760 
01:35	49.9	49.9	49.9	87	46.2	2	7	292	0.00	29.760 
01:40	49.8	49.8	49.8	87	46.1	2	6	292	0.00	29.760 
01:45	49.8	49.8	49.8	86	45.8	1	5	338	0.00	29.762 
01:50	49.6	49.6	49.6	86	45.6	2	5	315	0.00	29.762 
01:55	49.6	49.6	49.6	86	45.6	1	3	315	0.00	29.762 
02:00	49.5	49.5	49.5	87	45.8	1	5	315	0.00	29.763 
02:05	49.5	49.5	49.5	86	45.5	3	6	315	0.00	29.763 
02:10	49.4	49.4	49.4	85	45.1	3	7	292	0.00	29.763 
02:15	49.4	49.4	49.4	85	45.1	2	5	315	0.00	29.763 
02:20	49.2	49.2	49.2	84	44.6	2	5	292	0.00	29.763 
02:25	49.1	49.1	49.1	85	44.8	1	5	315	0.00	29.763 
02:30	49.1	49.1	49.1	85	44.8	2	4	270	0.00	29.763 
02:35	48.9	48.9	48.9	85	44.6	2	6	270	0.00	29.763 
02:40	48.8	48.8	48.8	85	44.5	1	5	292	0.00	29.763 
02:45	48.8	48.8	48.8	85	44.5	2	5	270	0.00	29.767 
02:50	48.6	48.6	48.6	85	44.3	2	4	292	0.00	29.767 
02:55	48.5	48.5	48.5	85	44.2	2	5	292	0.00	29.767 
03:00	48.3	48.3	48.3	85	44.0	2	5	292	0.00	29.772 
03:05	48.2	48.2	48.2	85	43.9	1	5	270	0.00	29.772 
03:10	48.2	48.2	48.2	85	43.9	1	5	292	0.00	29.772 
03:15	48.2	48.2	48.2	85	43.9	2	5	292	0.00	29.775 
03:20	48.2	48.2	48.2	85	43.9	2	5	270	0.00	29.775 
03:25	48.0	48.0	48.0	85	43.7	2	4	270	0.00	29.775 
03:30	48.0	48.0	48.0	85	43.7	1	5	270	0.00	29.778 
03:35	47.9	47.9	47.9	86	43.9	1	3	270	0.00	29.778 
03:40	47.9	47.9	47.9	86	43.9	0	2	270	0.00	29.778 
03:45	47.9	47.9	47.9	86	43.9	1	5	315	0.00	29.777 
03:50	48.0	48.0	48.0	86	44.0	1	3	292	0.00	29.777 
03:55	48.0	48.0	48.0	86	44.0	1	4	292	0.00	29.777 
04:00	47.9	47.9	47.9	86	43.9	1	4	292	0.00	29.784 
04:05	47.9	47.9	47.9	86	43.9	1	4	292	0.00	29.784 
04:10	47.9	47.9	47.9	86	43.9	2	5	292	0.00	29.784 
04:15	47.9	47.9	47.9	86	43.9	1	5	292	0.00	29.791 
04:20	47.9	47.9	47.9	86	43.9	2	6	292	0.00	29.791 
04:25	47.9	47.9	47.9	85	43.6	1	4	292	0.00	29.791 
04:30	47.9	47.9	47.9	86	43.9	1	3	292	0.00	29.794 
04:35	47.9	47.9	47.9	86	43.9	2	6	315	0.00	29.794 
04:40	47.9	47.9	47.9	86	43.9	2	6	338	0.00	29.794 
04:45	47.9	47.9	47.9	86	43.9	1	5	292	0.00	29.802 
04:50	47.9	47.9	47.9	86	43.9	2	6	270	0.00	29.802 
04:55	47.9	47.9	47.9	87	44.2	2	5	292	0.00	29.802 
05:00	47.7	47.7	47.7	88	44.3	2	7	292	0.00	29.800 
05:05	47.7	47.7	47.7	88	44.3	1	5	292	0.00	29.800 
05:10	47.6	47.6	47.6	88	44.2	2	4	270	0.00	29.800 
05:15	47.6	47.6	47.6	88	44.2	3	9	315	0.00	29.808 
05:20	47.7	47.7	47.7	87	44.0	3	7	292	0.00	29.808 
05:25	47.9	47.9	47.9	86	43.9	2	6	292	0.00	29.808 
05:30	47.9	47.9	47.9	85	43.6	2	7	315	0.00	29.810 
05:35	47.9	47.9	47.9	84	43.3	2	5	315	0.00	29.810 
05:40	48.0	48.0	48.0	84	43.4	2	5	292	0.00	29.810 
05:45	47.9	47.9	47.9	83	43.0	2	9	292	0.00	29.812 
05:50	47.9	47.9	47.9	82	42.7	2	6	292	0.00	29.812 
05:55	47.9	47.9	47.9	82	42.7	2	6	270	0.00	29.812 
06:00	47.9	47.9	47.9	82	42.7	2	6	338	0.00	29.822 
06:05	47.9	47.9	47.9	82	42.7	3	6	292	0.00	29.822 
06:10	47.9	47.9	47.9	82	42.7	2	5	292	0.00	29.822 
06:15	48.0	48.0	48.0	82	42.8	2	6	292	0.00	29.829 
06:20	48.0	48.0	48.0	82	42.8	3	5	270	0.00	29.829 
06:25	48.0	48.0	48.0	83	43.1	2	5	338	0.00	29.829 
06:30	48.0	48.0	48.0	82	42.8	2	5	315	0.00	29.831 
06:35	48.0	48.0	48.0	82	42.8	1	5	270	0.00	29.831 
06:40	48.0	48.0	48.0	82	42.8	1	6	270	0.00	29.831 
06:45	48.0	48.0	48.0	82	42.8	1	3	292	0.00	29.837 
06:50	47.9	47.9	47.9	82	42.7	2	5	292	0.00	29.837 
06:55	47.9	47.9	47.9	82	42.7	1	4	292	0.00	29.837 
07:00	47.9	47.9	47.9	82	42.7	3	7	292	0.00	29.841 
07:05	47.9	47.9	47.9	82	42.7	1	5	315	0.00	29.841 
07:10	47.9	47.9	47.9	82	42.7	2	7	292	0.00	29.841 
07:15	47.9	47.9	47.9	82	42.7	1	4	292	0.00	29.845 
07:20	47.7	47.7	47.7	82	42.5	1	4	270	0.00	29.845 
07:25	47.7	47.7	47.7	82	42.5	1	3	292	0.00	29.845 
07:30	47.7	47.7	47.7	82	42.5	1	4	292	0.00	29.852 
07:35	47.7	47.7	47.7	81	42.2	2	4	292	0.00	29.852 
07:40	47.7	47.7	47.7	82	42.5	1	5	292	0.00	29.852 
07:45	47.6	47.6	47.6	81	42.1	1	4	292	0.00	29.858 
07:50	47.6	47.6	47.6	81	42.1	2	4	292	0.00	29.858 
07:55	47.4	47.4	47.4	81	41.9	1	4	338	0.00	29.858 
08:00	47.4	47.4	47.4	82	42.2	1	4	292	0.00	29.864 
08:05	47.3	47.3	47.3	83	42.4	0	1	292	0.00	29.864 
08:10	47.1	47.1	47.1	84	42.5	0	4	292	0.00	29.864 
08:15	46.8	46.8	46.8	85	42.5	0	1	292	0.00	29.867 
08:20	46.7	46.7	46.7	86	42.7	0	1	292	0.00	29.867 
08:25	46.5	46.5	46.5	87	42.8	0	2	292	0.00	29.867 
08:30	46.4	46.4	46.4	87	42.7	0	2	292	0.00	29.873 
08:35	46.2	46.2	46.2	88	42.8	0	3	292	0.00	29.873 
08:40	46.1	46.1	46.1	88	42.7	0	2	292	0.00	29.873 
08:45	46.0	46.0	46.0	88	42.6	1	5	292	0.00	29.878 
08:50	46.0	46.0	46.0	89	42.9	1	5	45	0.00	29.878 
08:55	46.1	46.1	46.1	89	43.0	1	5	315	0.00	29.878 
09:00	46.1	46.1	46.1	88	42.7	0	4	292	0.00	29.886 
09:05	46.2	46.2	46.2	88	42.8	1	5	292	0.00	29.886 
09:10	46.4	46.4	46.4	88	43.0	1	3	292	0.00	29.886 
09:15	46.5	46.5	46.5	87	42.8	1	4	315	0.00	29.893 
09:20	46.7	46.7	46.7	87	43.0	1	4	292	0.00	29.893 
09:25	46.7	46.7	46.7	86	42.7	1	5	292	0.00	29.893 
09:30	46.8	46.8	46.8	85	42.5	1	4	270	0.00	29.900 
09:35	46.8	46.8	46.8	85	42.5	0	2	292	0.00	29.900 
09:40	47.0	47.0	47.0	85	42.7	1	5	270	0.00	29.900 
09:45	47.1	47.1	47.1	85	42.8	1	3	292	0.00	29.907 
09:50	47.6	47.6	47.6	84	43.0	1	3	292	0.00	29.907 
09:55	47.7	47.7	47.7	84	43.1	1	4	292	0.00	29.907 
10:00	48.0	48.0	48.0	82	42.8	1	4	292	0.00	29.907 
10:05	48.3	48.3	48.3	82	43.1	1	3	292	0.00	29.907 
10:10	48.5	48.5	48.5	82	43.3	1	5	270	0.00	29.907 
10:15	48.3	48.3	48.3	81	42.7	2	5	292	0.00	29.915 
10:20	48.3	48.3	48.3	81	42.7	1	6	315	0.00	29.915 
10:25	48.2	48.2	48.2	80	42.3	1	4	292	0.00	29.915 
10:30	48.3	48.3	48.3	80	42.4	1	3	292	0.00	29.919 
10:35	48.5	48.5	48.5	79	42.3	1	4	292	0.00	29.919 
10:40	48.6	48.6	48.6	79	42.4	0	4	315	0.00	29.919 
10:45	48.8	48.8	48.8	79	42.6	1	3	315	0.00	29.923 
10:50	48.6	48.6	48.6	78	42.1	2	6	315	0.00	29.923 
10:55	48.5	48.5	48.5	77	41.6	1	4	292	0.00	29.923 
11:00	48.3	48.3	48.3	77	41.4	3	7	292	0.00	29.928 
11:05	48.5	48.5	48.5	77	41.6	1	4	292	0.00	29.928 
11:10	48.5	48.5	48.5	76	41.3	1	4	315	0.00	29.928 
11:15	48.6	48.6	48.6	76	41.4	1	4	338	0.00	29.930 
11:20	48.6	48.6	48.6	75	41.0	2	7	338	0.00	29.930 
11:25	48.8	48.8	48.8	76	41.6	1	4	338	0.00	29.930 
11:30	48.9	48.9	48.9	76	41.7	0	3	338	0.00	29.939 
11:35	49.1	49.1	49.1	75	41.5	2	5	338	0.00	29.939 
11:40	48.9	48.9	48.9	73	40.6	3	7	292	0.00	29.939 
11:45	48.8	48.8	48.8	73	40.5	2	5	338	0.00	29.944 
11:50	48.8	48.8	48.8	74	40.9	2	7	338	0.00	29.944 
11:55	48.8	48.8	48.8	75	41.2	1	5	315	0.00	29.944 
12:00	48.8	48.8	48.8	75	41.2	1	6	292	0.00	29.952 
12:05	48.6	48.6	48.6	75	41.0	1	5	315	0.00	29.952 
12:10	48.6	48.6	48.6	74	40.7	1	9	338	0.00	29.952 
12:15	48.6	48.6	48.6	74	40.7	1	4	292	0.01	29.956 
12:20	48.6	48.6	48.6	75	41.0	0	3	315	0.00	29.956 
12:25	48.6	48.6	48.6	74	40.7	1	4	315	0.00	29.956 
12:30	48.5	48.5	48.5	75	40.9	2	4	292	0.00	29.961 
12:35	48.3	48.3	48.3	76	41.1	1	4	292	0.00	29.961 
12:40	48.2	48.2	48.2	76	41.0	1	5	292	0.00	29.961 
12:45	48.2	48.2	48.2	77	41.3	1	5	315	0.00	29.965 
12:50	48.0	48.0	48.0	77	41.1	1	4	338	0.00	29.965 
12:55	47.9	47.9	47.9	78	41.4	1	5	292	0.00	29.965 
13:00	47.7	47.7	47.7	79	41.5	1	5	338	0.00	29.971 
13:05	47.6	47.6	47.6	78	41.1	2	7	338	0.00	29.971 
13:10	47.4	47.4	47.4	79	41.2	1	3	338	0.00	29.971 
13:15	47.4	47.4	47.4	80	41.5	1	5	292	0.00	29.975 
13:20	47.4	47.4	47.4	81	41.9	1	3	292	0.00	29.975 
13:25	47.4	47.4	47.4	81	41.9	1	4	292	0.00	29.975 
13:30	47.1	47.1	47.1	81	41.6	2	5	292	0.00	29.977 
13:35	46.8	46.8	46.8	82	41.6	2	6	292	0.00	29.977 
13:40	46.7	46.7	46.7	83	41.8	0	2	315	0.00	29.977 
13:45	46.7	46.7	46.7	84	42.1	0	4	315	0.00	29.977 
13:50	46.5	46.5	46.5	84	41.9	1	3	315	0.00	29.977 
13:55	46.5	46.5	46.5	85	42.2	1	3	315	0.00	29.977 
14:00	46.5	46.5	46.5	85	42.2	1	4	292	0.00	29.978 
14:05	46.5	46.5	46.5	86	42.5	0	3	315	0.00	29.978 
14:10	46.4	46.4	46.4	85	42.1	1	4	315	0.00	29.978 
14:15	46.2	46.2	46.2	86	42.2	1	5	315	0.00	29.981 
14:20	46.2	46.2	46.2	86	42.2	0	3	315	0.00	29.981 
14:25	46.2	46.2	46.2	86	42.2	1	4	315	0.00	29.981 
14:30	46.1	46.1	46.1	86	42.1	2	5	315	0.00	29.991 
14:35	46.0	46.0	46.0	87	42.4	0	2	315	0.00	29.991 
14:40	46.0	46.0	46.0	88	42.6	0	2	315	0.01	29.991 
14:45	46.0	46.0	46.0	88	42.6	1	3	315	0.00	29.995 
14:50	45.8	45.8	45.8	88	42.5	1	4	315	0.00	29.995 
14:55	45.8	45.8	45.8	88	42.5	0	2	315	0.00	29.995 
15:00	45.8	45.8	45.8	89	42.7	0	2	315	0.00	29.997 
15:05	45.7	45.7	45.7	89	42.6	1	2	315	0.00	29.997 
15:10	45.7	45.7	45.7	90	42.9	0	4	315	0.01	29.997 
15:15	45.7	45.7	45.7	90	42.9	1	4	315	0.00	30.001 
15:20	45.7	45.7	45.7	90	42.9	1	3	315	0.00	30.001 
15:25	45.7	45.7	45.7	91	43.2	1	4	315	0.00	30.001 
15:30	45.7	45.7	45.7	91	43.2	0	2	270	0.01	30.010 
15:35	45.7	45.7	45.7	91	43.2	1	3	270	0.00	30.010 
15:40	45.7	45.7	45.7	91	43.2	1	3	270	0.00	30.010 
15:45	45.5	45.5	45.5	91	43.0	1	5	270	0.01	30.012 
15:50	45.5	45.5	45.5	91	43.0	0	3	315	0.00	30.012 
15:55	45.5	45.5	45.5	91	43.0	0	3	315	0.00	30.012 
16:00	45.5	45.5	45.5	91	43.0	0	4	270	0.00	30.014 
16:05	45.5	45.5	45.5	91	43.0	0	3	292	0.00	30.014 
16:10	45.5	45.5	45.5	91	43.0	0	3	292	0.01	30.014 
16:15	45.7	45.7	45.7	91	43.2	0	2	292	0.00	30.015 
16:20	45.7	45.7	45.7	92	43.5	0	1	292	0.00	30.015 
16:25	45.7	45.7	45.7	91	43.2	0	3	315	0.00	30.015 
16:30	45.7	45.7	45.7	91	43.2	1	4	315	0.00	30.023 
16:35	45.7	45.7	45.7	91	43.2	0	3	292	0.00	30.023 
16:40	45.8	45.8	45.8	91	43.3	0	3	292	0.00	30.023 
16:45	45.8	45.8	45.8	91	43.3	0	1	292	0.00	30.026 
16:50	45.8	45.8	45.8	91	43.3	1	5	292	0.00	30.026 
16:55	45.7	45.7	45.7	91	43.2	0	3	315	0.00	30.026 
17:00	45.7	45.7	45.7	91	43.2	0	2	315	0.00	30.029 
17:05	45.7	45.7	45.7	91	43.2	1	5	315	0.00	30.029 
17:10	45.8	45.8	45.8	91	43.3	0	4	315	0.00	30.029 
17:15	45.8	45.8	45.8	91	43.3	0	4	315	0.00	30.034 
17:20	46.0	46.0	46.0	90	43.2	0	2	315	0.00	30.034 
17:25	46.1	46.1	46.1	90	43.3	0	2	315	0.00	30.034 
17:30	46.1	46.1	46.1	90	43.3	0	3	315	0.00	30.033 
17:35	46.2	46.2	46.2	90	43.4	0	2	315	0.00	30.033 
17:40	46.4	46.4	46.4	90	43.6	0	2	315	0.00	30.033 
17:45	46.5	46.5	46.5	90	43.7	1	3	315	0.00	30.028 
17:50	46.7	46.7	46.7	89	43.6	0	2	315	0.00	30.028 
17:55	46.8	46.8	46.8	89	43.7	0	2	315	0.00	30.028 
18:00	46.8	46.8	46.8	88	43.4	1	3	315	0.00	30.038 
18:05	46.8	46.8	46.8	87	43.1	1	3	315	0.00	30.038 
18:10	46.8	46.8	46.8	87	43.1	1	3	315	0.00	30.038 
18:15	46.8	46.8	46.8	87	43.1	0	3	315	0.00	30.044 
18:20	46.8	46.8	46.8	86	42.8	0	3	315	0.00	30.044 
18:25	46.8	46.8	46.8	86	42.8	1	3	315	0.00	30.044 
18:30	46.8	46.8	46.8	86	42.8	0	2	315	0.00	30.055 
18:35	47.0	47.0	47.0	85	42.7	0	2	315	0.00	30.055 
18:40	47.0	47.0	47.0	85	42.7	0	3	315	0.00	30.055 
18:45	47.0	47.0	47.0	85	42.7	1	4	315	0.00	30.059 
18:50	47.0	47.0	47.0	84	42.4	1	4	315	0.00	30.059 
18:55	47.1	47.1	47.1	83	42.2	1	4	315	0.00	30.059 
19:00	47.1	47.1	47.1	83	42.2	0	3	315	0.00	30.064 
19:05	47.1	47.1	47.1	82	41.9	1	5	315	0.00	30.064 
19:10	47.1	47.1	47.1	81	41.6	0	3	315	0.00	30.064 
19:15	47.0	47.0	47.0	81	41.5	0	3	315	0.00	30.067 
19:20	46.8	46.8	46.8	81	41.3	0	3	315	0.00	30.067 
19:25	46.7	46.7	46.7	81	41.2	0	3	315	0.00	30.067 
19:30	46.5	46.5	46.5	80	40.7	0	3	338	0.00	30.074 
19:35	46.4	46.4	46.4	81	40.9	0	2	338	0.00	30.074 
19:40	46.2	46.2	46.2	81	40.7	0	1	338	0.00	30.074 
19:45	46.0	46.0	46.0	81	40.5	0	1	338	0.00	30.080 
19:50	45.8	45.8	45.8	82	40.6	0	1	338	0.00	30.080 
19:55	45.7	45.7	45.7	82	40.5	0	1	338	0.00	30.080 
20:00	45.7	45.7	45.7	83	40.8	0	1	338	0.00	30.088 
20:05	45.7	45.7	45.7	83	40.8	0	0	---	0.00	30.088 
20:10	45.7	45.7	45.7	83	40.8	0	1	338	0.00	30.088 
20:15	45.5	45.5	45.5	84	41.0	0	1	338	0.00	30.089 
20:20	45.4	45.4	45.4	84	40.9	0	1	338	0.00	30.089 
20:25	45.2	45.2	45.2	84	40.7	0	1	338	0.00	30.089 
20:30	45.1	45.1	45.1	84	40.6	0	2	338	0.00	30.093 
20:35	44.9	44.9	44.9	85	40.7	0	3	338	0.00	30.093 
20:40	44.9	44.9	44.9	85	40.7	0	1	338	0.00	30.093 
20:45	44.8	44.8	44.8	85	40.6	0	1	338	0.00	30.099 
20:50	44.6	44.6	44.6	86	40.7	0	1	338	0.00	30.099 
20:55	44.5	44.5	44.5	86	40.6	0	1	338	0.00	30.099 
21:00	44.3	44.3	44.3	86	40.4	0	0	---	0.00	30.108 
21:05	44.2	44.2	44.2	86	40.3	0	0	---	0.00	30.108 
21:10	44.2	44.2	44.2	87	40.6	0	1	338	0.00	30.108 
21:15	44.1	44.1	44.1	87	40.5	0	0	---	0.00	30.107 
21:20	44.1	44.1	44.1	87	40.5	0	0	---	0.00	30.107 
21:25	44.1	44.1	44.1	87	40.5	0	0	---	0.00	30.107 
21:30	44.1	44.1	44.1	88	40.8	0	1	338	0.00	30.110 
21:35	44.2	44.2	44.2	88	40.9	0	3	338	0.00	30.110 
21:40	44.5	44.5	44.5	87	40.9	0	2	338	0.00	30.110 
21:45	44.6	44.6	44.6	87	41.0	0	1	338	0.00	30.117 
21:50	44.9	44.9	44.9	86	41.0	0	2	338	0.00	30.117 
21:55	45.1	45.1	45.1	85	40.9	1	3	338	0.00	30.117 
22:00	45.2	45.2	45.2	84	40.7	1	5	338	0.00	30.122 
22:05	45.4	45.4	45.4	83	40.5	0	4	338	0.00	30.122 
22:10	45.4	45.4	45.4	82	40.2	1	3	338	0.00	30.122 
22:15	45.4	45.4	45.4	82	40.2	1	4	338	0.00	30.122 
22:20	45.5	45.5	45.5	82	40.3	0	2	338	0.00	30.122 
22:25	45.4	45.4	45.4	82	40.2	0	2	338	0.00	30.122 
22:30	45.2	45.2	45.2	82	40.0	0	1	338	0.00	30.123 
22:35	45.1	45.1	45.1	82	39.9	1	4	338	0.00	30.123 
22:40	44.9	44.9	44.9	82	39.7	0	2	338	0.00	30.123 
22:45	44.8	44.8	44.8	81	39.3	0	2	338	0.00	30.125 
22:50	44.6	44.6	44.6	81	39.1	1	4	338	0.00	30.125 
22:55	44.5	44.5	44.5	81	39.0	1	5	338	0.00	30.125 
23:00	44.3	44.3	44.3	81	38.8	1	3	338	0.00	30.131 
23:05	44.3	44.3	44.3	81	38.8	0	1	338	0.00	30.131 
23:10	44.3	44.3	44.3	81	38.8	0	1	338	0.00	30.131 
23:15	44.2	44.2	44.2	81	38.7	0	3	338	0.00	30.129 
23:20	44.2	44.2	44.2	81	38.7	0	1	338	0.00	30.129 
23:25	44.1	44.1	44.1	81	38.6	0	3	338	0.00	30.129 
23:30	43.9	43.9	43.9	81	38.5	0	1	315	0.00	30.127 
23:35	43.9	43.9	43.9	80	38.1	0	2	315	0.00	30.127 
23:40	43.8	43.8	43.8	80	38.0	0	1	315	0.00	30.127 
23:45	43.8	43.8	43.8	80	38.0	0	1	315	0.00	30.127 
23:50	43.8	43.8	43.8	80	38.0	0	1	315	0.00	30.127 
23:55	43.6	43.6	43.6	79	37.5	0	1	315	0.00	30.127 

CoCoRaHS
IN-AL-39
A2 Web Hosting
Creative Commons License
GoDaddy
search engine by freefind advanced

loaded 2018-11-12 14:44:43 • last modified 2010-11-18 10:43:29
Privacy PolicyDisclaimer
• wx.awcolley.com is powered by PmWiki v.2002016 •
• all content (unless otherwise noted) © 2018 A W Colley